sensor_id;sensor_type;location;lat;lon;timestamp;pressure;altitude;pressure_sealevel;temperature;humidity
68994;BME280;56054;50.968;5.816;2023-03-25T01:17:27;99584.97;;;8.59;100.00
68994;BME280;56054;50.968;5.816;2023-03-25T01:25:42;99583.00;;;8.55;100.00
68994;BME280;56054;50.968;5.816;2023-03-25T01:34:12;99561.25;;;8.51;100.00
68994;BME280;56054;50.968;5.816;2023-03-25T01:37:41;99565.53;;;8.51;100.00
68994;BME280;56054;50.968;5.816;2023-03-25T01:53:13;99552.38;;;8.46;100.00
68994;BME280;56054;50.968;5.816;2023-03-25T02:12:54;99549.16;;;8.35;100.00
68994;BME280;56054;50.968;5.816;2023-03-25T02:28:43;99556.97;;;8.52;100.00
68994;BME280;56054;50.968;5.816;2023-03-25T03:06:32;99544.66;;;8.48;100.00
68994;BME280;56054;50.968;5.816;2023-03-25T08:38:45;99678.19;;;9.77;100.00
68994;BME280;56054;50.968;5.816;2023-03-25T08:41:55;99678.25;;;9.78;100.00
68994;BME280;56054;50.968;5.816;2023-03-25T08:45:14;99685.69;;;9.89;100.00
68994;BME280;56054;50.968;5.816;2023-03-25T08:48:21;99679.38;;;9.83;100.00
68994;BME280;56054;50.968;5.816;2023-03-25T08:51:28;99684.06;;;9.91;100.00
68994;BME280;56054;50.968;5.816;2023-03-25T08:54:35;99677.16;;;9.91;100.00
68994;BME280;56054;50.968;5.816;2023-03-25T08:57:41;99677.59;;;10.00;100.00
68994;BME280;56054;50.968;5.816;2023-03-25T09:00:57;99681.34;;;10.07;100.00
68994;BME280;56054;50.968;5.816;2023-03-25T09:04:05;99684.34;;;9.97;100.00
68994;BME280;56054;50.968;5.816;2023-03-25T09:07:13;99691.16;;;9.95;100.00
68994;BME280;56054;50.968;5.816;2023-03-25T09:10:21;99679.13;;;9.97;100.00
68994;BME280;56054;50.968;5.816;2023-03-25T09:13:28;99690.72;;;10.03;100.00
68994;BME280;56054;50.968;5.816;2023-03-25T09:16:35;99695.91;;;10.03;100.00
68994;BME280;56054;50.968;5.816;2023-03-25T09:19:43;99690.13;;;10.09;100.00
68994;BME280;56054;50.968;5.816;2023-03-25T09:22:50;99702.13;;;10.07;100.00
68994;BME280;56054;50.968;5.816;2023-03-25T09:26:01;99702.88;;;10.04;100.00
68994;BME280;56054;50.968;5.816;2023-03-25T09:29:09;99696.00;;;10.05;100.00
68994;BME280;56054;50.968;5.816;2023-03-25T09:32:16;99713.84;;;10.17;100.00
68994;BME280;56054;50.968;5.816;2023-03-25T09:35:48;99727.13;;;10.05;100.00
68994;BME280;56054;50.968;5.816;2023-03-25T09:38:56;99704.38;;;10.17;100.00
68994;BME280;56054;50.968;5.816;2023-03-25T09:45:47;99698.97;;;10.31;100.00
68994;BME280;56054;50.968;5.816;2023-03-25T09:48:55;99702.66;;;10.36;100.00
68994;BME280;56054;50.968;5.816;2023-03-25T09:52:04;99699.81;;;10.30;100.00
68994;BME280;56054;50.968;5.816;2023-03-25T09:55:19;99714.16;;;10.41;100.00
68994;BME280;56054;50.968;5.816;2023-03-25T09:59:10;99703.28;;;10.67;100.00
68994;BME280;56054;50.968;5.816;2023-03-25T10:06:18;99702.25;;;10.64;99.44
68994;BME280;56054;50.968;5.816;2023-03-25T10:13:07;99736.41;;;10.91;100.00
68994;BME280;56054;50.968;5.816;2023-03-25T10:23:36;99725.19;;;11.31;97.53
68994;BME280;56054;50.968;5.816;2023-03-25T10:26:46;99731.91;;;11.26;97.86
68994;BME280;56054;50.968;5.816;2023-03-25T10:33:22;99737.44;;;10.95;100.00
68994;BME280;56054;50.968;5.816;2023-03-25T10:36:46;99754.72;;;10.75;100.00
68994;BME280;56054;50.968;5.816;2023-03-25T10:40:22;99751.31;;;10.22;100.00
68994;BME280;56054;50.968;5.816;2023-03-25T10:43:39;99726.63;;;10.12;100.00
68994;BME280;56054;50.968;5.816;2023-03-25T10:46:51;99747.28;;;9.93;100.00
68994;BME280;56054;50.968;5.816;2023-03-25T10:50:03;99741.78;;;9.86;100.00
68994;BME280;56054;50.968;5.816;2023-03-25T10:53:23;99736.44;;;9.83;100.00
68994;BME280;56054;50.968;5.816;2023-03-25T10:56:34;99736.19;;;9.61;100.00
68994;BME280;56054;50.968;5.816;2023-03-25T11:03:29;99733.72;;;10.16;100.00
68994;BME280;56054;50.968;5.816;2023-03-25T11:06:46;99746.25;;;10.41;100.00
68994;BME280;56054;50.968;5.816;2023-03-25T11:13:26;99743.41;;;10.37;100.00
68994;BME280;56054;50.968;5.816;2023-03-25T11:16:43;99757.31;;;10.21;100.00
68994;BME280;56054;50.968;5.816;2023-03-25T11:19:58;99759.22;;;10.07;100.00
68994;BME280;56054;50.968;5.816;2023-03-25T11:23:21;99764.50;;;9.91;100.00
68994;BME280;56054;50.968;5.816;2023-03-25T11:26:38;99747.22;;;9.91;100.00
68994;BME280;56054;50.968;5.816;2023-03-25T11:29:51;99737.16;;;10.15;100.00
68994;BME280;56054;50.968;5.816;2023-03-25T11:33:05;99735.75;;;10.40;100.00
68994;BME280;56054;50.968;5.816;2023-03-25T11:36:37;99733.22;;;10.59;100.00
68994;BME280;56054;50.968;5.816;2023-03-25T11:39:54;99721.63;;;10.70;100.00
68994;BME280;56054;50.968;5.816;2023-03-25T11:43:14;99718.78;;;11.03;100.00
68994;BME280;56054;50.968;5.816;2023-03-25T11:46:26;99713.78;;;11.27;98.77
68994;BME280;56054;50.968;5.816;2023-03-25T11:49:39;99715.53;;;11.88;97.57
68994;BME280;56054;50.968;5.816;2023-03-25T11:52:49;99699.19;;;12.13;93.71
68994;BME280;56054;50.968;5.816;2023-03-25T11:56:26;99714.72;;;12.55;93.31
68994;BME280;56054;50.968;5.816;2023-03-25T11:59:43;99696.16;;;12.46;96.12
68994;BME280;56054;50.968;5.816;2023-03-25T12:03:25;99702.38;;;12.06;92.17
68994;BME280;56054;50.968;5.816;2023-03-25T12:06:33;99722.22;;;11.62;94.68
68994;BME280;56054;50.968;5.816;2023-03-25T12:10:04;99712.38;;;11.35;100.00
68994;BME280;56054;50.968;5.816;2023-03-25T12:13:32;99704.63;;;11.56;100.00
68994;BME280;56054;50.968;5.816;2023-03-25T12:23:53;99682.75;;;11.51;95.97
68994;BME280;56054;50.968;5.816;2023-03-25T12:34:54;99698.66;;;11.19;95.47
68994;BME280;56054;50.968;5.816;2023-03-25T12:42:07;99706.75;;;10.48;100.00
68994;BME280;56054;50.968;5.816;2023-03-25T12:55:02;99761.47;;;10.17;100.00
68994;BME280;56054;50.968;5.816;2023-03-25T13:06:16;99753.28;;;9.41;100.00
68994;BME280;56054;50.968;5.816;2023-03-25T13:12:52;99756.75;;;9.58;100.00
68994;BME280;56054;50.968;5.816;2023-03-25T13:16:26;99757.84;;;9.79;100.00
68994;BME280;56054;50.968;5.816;2023-03-25T13:19:38;99748.94;;;9.74;100.00
68994;BME280;56054;50.968;5.816;2023-03-25T13:22:51;99741.81;;;9.70;100.00
68994;BME280;56054;50.968;5.816;2023-03-25T13:26:18;99747.53;;;9.97;100.00
68994;BME280;56054;50.968;5.816;2023-03-25T13:29:37;99748.97;;;9.92;100.00
68994;BME280;56054;50.968;5.816;2023-03-25T13:32:50;99743.66;;;10.07;100.00
68994;BME280;56054;50.968;5.816;2023-03-25T13:36:08;99739.84;;;10.35;100.00
68994;BME280;56054;50.968;5.816;2023-03-25T13:39:26;99698.38;;;10.74;100.00
68994;BME280;56054;50.968;5.816;2023-03-25T13:42:47;99723.97;;;11.03;100.00
68994;BME280;56054;50.968;5.816;2023-03-25T13:46:14;99715.50;;;11.07;100.00
68994;BME280;56054;50.968;5.816;2023-03-25T14:04:37;99714.09;;;11.35;100.00
68994;BME280;56054;50.968;5.816;2023-03-25T14:12:12;99730.25;;;11.28;100.00
68994;BME280;56054;50.968;5.816;2023-03-25T14:15:31;99736.69;;;10.97;100.00
68994;BME280;56054;50.968;5.816;2023-03-25T14:18:43;99762.63;;;10.78;100.00
68994;BME280;56054;50.968;5.816;2023-03-25T14:21:53;99740.63;;;10.69;100.00
68994;BME280;56054;50.968;5.816;2023-03-25T14:25:00;99748.19;;;10.65;100.00
68994;BME280;56054;50.968;5.816;2023-03-25T14:28:10;99725.91;;;11.07;100.00
68994;BME280;56054;50.968;5.816;2023-03-25T14:34:28;99736.97;;;11.83;100.00
68994;BME280;56054;50.968;5.816;2023-03-25T14:37:50;99738.97;;;11.88;100.00
68994;BME280;56054;50.968;5.816;2023-03-25T14:40:58;99751.09;;;11.88;100.00
68994;BME280;56054;50.968;5.816;2023-03-25T14:44:16;99751.72;;;12.03;100.00
68994;BME280;56054;50.968;5.816;2023-03-25T14:47:26;99760.19;;;11.78;100.00
68994;BME280;56054;50.968;5.816;2023-03-25T14:54:35;99751.66;;;11.82;100.00
68994;BME280;56054;50.968;5.816;2023-03-25T14:57:43;99740.56;;;11.86;100.00
68994;BME280;56054;50.968;5.816;2023-03-25T15:01:02;99745.81;;;11.67;100.00
68994;BME280;56054;50.968;5.816;2023-03-25T15:04:12;99741.50;;;11.67;100.00
68994;BME280;56054;50.968;5.816;2023-03-25T15:11:00;99724.72;;;11.61;100.00
68994;BME280;56054;50.968;5.816;2023-03-25T15:14:15;99738.34;;;11.53;100.00
68994;BME280;56054;50.968;5.816;2023-03-25T15:17:45;99752.22;;;11.54;100.00
68994;BME280;56054;50.968;5.816;2023-03-25T15:21:23;99747.63;;;11.29;100.00
68994;BME280;56054;50.968;5.816;2023-03-25T15:28:14;99732.63;;;11.62;100.00
68994;BME280;56054;50.968;5.816;2023-03-25T15:42:36;99741.34;;;12.47;85.55
68994;BME280;56054;50.968;5.816;2023-03-25T15:52:57;99736.03;;;12.23;88.83
68994;BME280;56054;50.968;5.816;2023-03-25T15:56:13;99722.06;;;12.20;87.73
68994;BME280;56054;50.968;5.816;2023-03-25T16:00:03;99737.50;;;12.16;85.51
68994;BME280;56054;50.968;5.816;2023-03-25T16:03:23;99762.78;;;11.97;91.97
68994;BME280;56054;50.968;5.816;2023-03-25T16:06:42;99769.47;;;11.92;90.30
68994;BME280;56054;50.968;5.816;2023-03-25T16:09:54;99792.03;;;11.72;94.88
68994;BME280;56054;50.968;5.816;2023-03-25T16:13:14;99798.50;;;11.22;100.00
68994;BME280;56054;50.968;5.816;2023-03-25T16:16:22;99788.13;;;11.04;100.00
68994;BME280;56054;50.968;5.816;2023-03-25T16:19:45;99804.38;;;11.18;100.00
68994;BME280;56054;50.968;5.816;2023-03-25T16:22:55;99798.44;;;11.40;94.88
68994;BME280;56054;50.968;5.816;2023-03-25T16:26:04;99792.47;;;11.43;94.86
68994;BME280;56054;50.968;5.816;2023-03-25T16:29:24;99790.19;;;11.50;94.13
68994;BME280;56054;50.968;5.816;2023-03-25T16:32:34;99786.63;;;11.68;93.62
68994;BME280;56054;50.968;5.816;2023-03-25T16:39:23;99789.22;;;11.68;92.54
68994;BME280;56054;50.968;5.816;2023-03-25T16:42:31;99805.38;;;11.61;92.44
68994;BME280;56054;50.968;5.816;2023-03-25T16:45:43;99798.63;;;11.64;93.43
68994;BME280;56054;50.968;5.816;2023-03-25T16:48:57;99809.38;;;11.52;93.92
68994;BME280;56054;50.968;5.816;2023-03-25T16:52:12;99802.00;;;11.42;94.44
68994;BME280;56054;50.968;5.816;2023-03-25T16:59:05;99816.41;;;11.35;95.53
68994;BME280;56054;50.968;5.816;2023-03-25T17:02:41;99798.16;;;11.34;95.78
68994;BME280;56054;50.968;5.816;2023-03-25T17:06:30;99825.94;;;11.35;96.17
68994;BME280;56054;50.968;5.816;2023-03-25T17:09:38;99820.59;;;11.32;95.73
68994;BME280;56054;50.968;5.816;2023-03-25T17:13:07;99832.66;;;11.30;96.74
68994;BME280;56054;50.968;5.816;2023-03-25T17:16:16;99832.22;;;11.21;98.98
68994;BME280;56054;50.968;5.816;2023-03-25T17:19:25;99825.09;;;11.17;100.00
68994;BME280;56054;50.968;5.816;2023-03-25T17:22:37;99833.72;;;11.16;97.38
68994;BME280;56054;50.968;5.816;2023-03-25T17:26:05;99821.56;;;11.14;99.63
68994;BME280;56054;50.968;5.816;2023-03-25T17:29:14;99816.34;;;11.14;97.91
68994;BME280;56054;50.968;5.816;2023-03-25T17:32:21;99838.78;;;11.12;99.50
68994;BME280;56054;50.968;5.816;2023-03-25T17:35:36;99854.38;;;11.12;98.57
68994;BME280;56054;50.968;5.816;2023-03-25T17:38:50;99853.78;;;11.18;99.56
68994;BME280;56054;50.968;5.816;2023-03-25T17:42:05;99858.75;;;11.13;97.59
68994;BME280;56054;50.968;5.816;2023-03-25T17:45:38;99862.00;;;11.09;97.88
68994;BME280;56054;50.968;5.816;2023-03-25T17:48:46;99855.06;;;11.08;97.76
68994;BME280;56054;50.968;5.816;2023-03-25T17:51:53;99857.72;;;11.10;97.20
68994;BME280;56054;50.968;5.816;2023-03-25T17:55:00;99859.59;;;11.12;96.05
68994;BME280;56054;50.968;5.816;2023-03-25T17:58:07;99877.84;;;11.14;95.79
68994;BME280;56054;50.968;5.816;2023-03-25T18:01:14;99889.91;;;11.12;96.58
68994;BME280;56054;50.968;5.816;2023-03-25T18:04:21;99901.31;;;11.16;95.60
68994;BME280;56054;50.968;5.816;2023-03-25T18:07:53;99905.50;;;11.12;96.54
68994;BME280;56054;50.968;5.816;2023-03-25T18:11:00;99915.91;;;11.12;95.42
68994;BME280;56054;50.968;5.816;2023-03-25T18:14:07;99916.84;;;11.14;95.41
68994;BME280;56054;50.968;5.816;2023-03-25T18:17:14;99911.41;;;11.09;96.60
68994;BME280;56054;50.968;5.816;2023-03-25T18:20:27;99929.47;;;11.06;96.49
68994;BME280;56054;50.968;5.816;2023-03-25T18:23:34;99937.00;;;11.00;97.06
68994;BME280;56054;50.968;5.816;2023-03-25T18:26:42;99931.94;;;11.03;96.59
68994;BME280;56054;50.968;5.816;2023-03-25T18:29:49;99931.63;;;10.97;97.28
68994;BME280;56054;50.968;5.816;2023-03-25T18:32:57;99934.91;;;10.93;97.84
68994;BME280;56054;50.968;5.816;2023-03-25T18:36:05;99945.00;;;10.87;98.58
68994;BME280;56054;50.968;5.816;2023-03-25T18:39:38;99942.25;;;10.84;98.41
68994;BME280;56054;50.968;5.816;2023-03-25T18:42:45;99942.75;;;10.77;98.72
68994;BME280;56054;50.968;5.816;2023-03-25T18:45:52;99942.47;;;10.70;98.53
68994;BME280;56054;50.968;5.816;2023-03-25T18:49:13;99947.25;;;10.63;99.21
68994;BME280;56054;50.968;5.816;2023-03-25T18:52:21;99948.97;;;10.62;99.04
68994;BME280;56054;50.968;5.816;2023-03-25T18:55:29;99947.94;;;10.59;99.47
68994;BME280;56054;50.968;5.816;2023-03-25T18:58:43;99945.16;;;10.56;100.00
68994;BME280;56054;50.968;5.816;2023-03-25T19:01:53;99946.97;;;10.57;99.31
68994;BME280;56054;50.968;5.816;2023-03-25T19:05:02;99946.00;;;10.55;99.78
68994;BME280;56054;50.968;5.816;2023-03-25T19:08:19;99941.81;;;10.58;99.40
68994;BME280;56054;50.968;5.816;2023-03-25T19:11:26;99948.50;;;10.53;99.34
68994;BME280;56054;50.968;5.816;2023-03-25T19:14:33;99957.84;;;10.49;100.00
68994;BME280;56054;50.968;5.816;2023-03-25T19:17:49;99959.06;;;10.56;100.00
68994;BME280;56054;50.968;5.816;2023-03-25T19:21:45;99952.16;;;10.57;100.00
68994;BME280;56054;50.968;5.816;2023-03-25T19:24:53;99958.38;;;10.60;99.38
68994;BME280;56054;50.968;5.816;2023-03-25T19:28:37;99960.84;;;10.57;100.00
68994;BME280;56054;50.968;5.816;2023-03-25T19:31:48;99958.16;;;10.56;100.00
68994;BME280;56054;50.968;5.816;2023-03-25T19:35:05;99950.22;;;10.53;100.00
68994;BME280;56054;50.968;5.816;2023-03-25T19:38:28;99953.88;;;10.56;100.00
68994;BME280;56054;50.968;5.816;2023-03-25T19:41:38;99944.03;;;10.50;100.00
68994;BME280;56054;50.968;5.816;2023-03-25T19:44:45;99957.94;;;10.51;100.00
68994;BME280;56054;50.968;5.816;2023-03-25T19:48:01;99962.41;;;10.54;100.00
68994;BME280;56054;50.968;5.816;2023-03-25T19:51:20;99953.50;;;10.48;100.00
68994;BME280;56054;50.968;5.816;2023-03-25T19:55:09;99952.28;;;10.42;100.00
68994;BME280;56054;50.968;5.816;2023-03-25T19:58:41;99942.53;;;10.38;100.00
68994;BME280;56054;50.968;5.816;2023-03-25T20:01:49;99941.56;;;10.36;100.00
68994;BME280;56054;50.968;5.816;2023-03-25T20:04:56;99950.97;;;10.34;100.00
68994;BME280;56054;50.968;5.816;2023-03-25T20:08:03;99948.31;;;10.32;100.00
68994;BME280;56054;50.968;5.816;2023-03-25T20:11:11;99942.59;;;10.23;100.00
68994;BME280;56054;50.968;5.816;2023-03-25T20:14:50;99950.16;;;10.18;100.00
68994;BME280;56054;50.968;5.816;2023-03-25T20:17:57;99932.06;;;10.20;100.00
68994;BME280;56054;50.968;5.816;2023-03-25T20:21:08;99935.22;;;10.14;100.00
68994;BME280;56054;50.968;5.816;2023-03-25T20:24:16;99932.47;;;10.11;100.00
68994;BME280;56054;50.968;5.816;2023-03-25T20:27:23;99948.19;;;10.14;100.00
68994;BME280;56054;50.968;5.816;2023-03-25T20:30:31;99946.28;;;10.10;100.00
68994;BME280;56054;50.968;5.816;2023-03-25T20:33:45;99952.25;;;10.09;100.00
68994;BME280;56054;50.968;5.816;2023-03-25T20:36:52;99946.09;;;10.07;100.00
68994;BME280;56054;50.968;5.816;2023-03-25T20:39:59;99952.25;;;10.09;100.00
68994;BME280;56054;50.968;5.816;2023-03-25T20:43:06;99961.75;;;10.08;100.00
68994;BME280;56054;50.968;5.816;2023-03-25T20:46:14;99974.75;;;10.08;100.00
68994;BME280;56054;50.968;5.816;2023-03-25T20:49:21;99963.47;;;10.08;100.00
68994;BME280;56054;50.968;5.816;2023-03-25T20:52:33;99972.06;;;10.07;100.00
68994;BME280;56054;50.968;5.816;2023-03-25T20:55:43;99969.53;;;10.08;100.00
68994;BME280;56054;50.968;5.816;2023-03-25T20:58:50;99967.44;;;10.01;100.00
68994;BME280;56054;50.968;5.816;2023-03-25T21:01:57;99973.69;;;10.05;100.00
68994;BME280;56054;50.968;5.816;2023-03-25T21:05:04;99977.81;;;10.01;100.00
68994;BME280;56054;50.968;5.816;2023-03-25T21:08:13;99973.22;;;9.96;100.00
68994;BME280;56054;50.968;5.816;2023-03-25T21:11:20;99980.16;;;9.97;100.00
68994;BME280;56054;50.968;5.816;2023-03-25T21:14:27;99987.88;;;9.95;100.00
68994;BME280;56054;50.968;5.816;2023-03-25T21:17:34;99992.00;;;9.92;100.00
68994;BME280;56054;50.968;5.816;2023-03-25T21:20:47;99995.06;;;9.84;100.00
68994;BME280;56054;50.968;5.816;2023-03-25T21:23:58;99975.94;;;9.82;100.00
68994;BME280;56054;50.968;5.816;2023-03-25T21:27:33;99993.31;;;9.83;100.00
68994;BME280;56054;50.968;5.816;2023-03-25T21:30:40;99990.31;;;9.76;99.87
68994;BME280;56054;50.968;5.816;2023-03-25T21:33:58;100002.19;;;9.72;99.49
68994;BME280;56054;50.968;5.816;2023-03-25T21:37:38;99990.69;;;9.67;99.29
68994;BME280;56054;50.968;5.816;2023-03-25T21:40:53;99997.56;;;9.67;100.00
68994;BME280;56054;50.968;5.816;2023-03-25T22:01:58;100005.41;;;9.52;99.14
68994;BME280;56054;50.968;5.816;2023-03-25T22:05:11;99995.81;;;9.51;100.00
68994;BME280;56054;50.968;5.816;2023-03-25T22:08:49;100002.72;;;9.50;100.00
68994;BME280;56054;50.968;5.816;2023-03-25T22:11:58;100004.88;;;9.42;100.00
68994;BME280;56054;50.968;5.816;2023-03-25T22:15:09;100009.97;;;9.41;100.00
68994;BME280;56054;50.968;5.816;2023-03-25T22:18:18;100007.94;;;9.35;100.00
68994;BME280;56054;50.968;5.816;2023-03-25T22:21:50;100001.50;;;9.29;100.00
68994;BME280;56054;50.968;5.816;2023-03-25T22:25:06;99993.31;;;9.21;100.00
68994;BME280;56054;50.968;5.816;2023-03-25T22:28:13;100007.88;;;9.19;100.00
68994;BME280;56054;50.968;5.816;2023-03-25T22:31:32;100012.28;;;9.20;100.00
68994;BME280;56054;50.968;5.816;2023-03-25T22:34:43;100009.69;;;9.20;100.00
68994;BME280;56054;50.968;5.816;2023-03-25T22:37:54;100003.50;;;9.18;100.00
68994;BME280;56054;50.968;5.816;2023-03-25T22:41:03;100004.41;;;9.18;100.00
68994;BME280;56054;50.968;5.816;2023-03-25T22:44:10;100012.00;;;9.15;100.00
68994;BME280;56054;50.968;5.816;2023-03-25T22:47:18;100013.50;;;9.12;100.00
68994;BME280;56054;50.968;5.816;2023-03-25T22:50:29;100005.56;;;9.09;100.00
68994;BME280;56054;50.968;5.816;2023-03-25T22:53:38;100007.13;;;9.05;100.00
68994;BME280;56054;50.968;5.816;2023-03-25T22:56:48;100023.09;;;9.13;100.00
68994;BME280;56054;50.968;5.816;2023-03-25T22:59:55;100008.97;;;9.08;100.00
68994;BME280;56054;50.968;5.816;2023-03-25T23:03:02;100007.13;;;9.05;100.00
68994;BME280;56054;50.968;5.816;2023-03-25T23:06:35;100006.22;;;9.05;100.00
